Sunflower Gold — JD2460 — position and weather

sailwx.info

Track history (hours):
 
Tides and Currents Weather Stations Pressure Air Temp Water Temp Dewpoint Dewpoint Depression Visibility Wind Speed Wind Dir Waves Ship Positions

Sunflower Gold

Last reported at 2017-Mar-22 21:34 UTC. Time now 2017-Mar-22 22:10 UTC.
Position N 34°42' E 135°17'.

Length 166 m; draft 5.8 m.

Type: Passenger vessel. MMSI: 431000331.

Date/timePositionNaut miles runAvg speedWind from/ knotsBaromVisibWave heightAir tempDewpointWater temp
2017-Mar-22 21:34N 34°42' E 135°17'1212.3
2017-Mar-22 20:33N 34°35' E 135°05'12818.0
2017-Mar-22 13:27N 33°54' E 132°38'2021.9
2017-Mar-22 12:33N 33°42' E 132°20'11 0.6
2017-Mar-21 19:24N 33°36' E 132°09'1820.9
2017-Mar-21 18:34N 33°45' E 132°27'2120.3
2017-Mar-21 17:33N 34°00' E 132°44'11418.4
2017-Mar-21 11:21N 34°36' E 134°55'1518.4
2017-Mar-21 10:33N 34°36' E 135°13'7 6.2
2017-Mar-21 09:28N 34°42' E 135°17'0 0.0
2017-Mar-21 08:28N 34°42' E 135°17'0 0.0
2017-Mar-21 07:22N 34°42' E 135°17'0 0.0
2017-Mar-21 06:28N 34°42' E 135°17'0 0.0
2017-Mar-21 05:28N 34°42' E 135°17'0 0.0
2017-Mar-21 04:28N 34°42' E 135°17'0 0.0
2017-Mar-21 03:28N 34°42' E 135°17'0 0.0
2017-Mar-21 02:28N 34°42' E 135°17'0 0.0
2017-Mar-21 01:28N 34°42' E 135°17'0 0.0
2017-Mar-21 00:28N 34°42' E 135°17'0 0.0
2017-Mar-20 23:28N 34°42' E 135°17'0 0.0
2017-Mar-20 22:22N 34°42' E 135°17'0 0.0
2017-Mar-20 21:33N 34°42' E 135°17'1111.2
2017-Mar-20 20:33N 34°35' E 135°07'12918.2
2017-Mar-20 13:28N 33°54' E 132°38'2021.7
2017-Mar-20 12:33N 33°42' E 132°20'8 0.5
2017-Mar-19 19:16N 33°39' E 132°11'1620.4
2017-Mar-19 18:28N 33°47' E 132°27'1919.9
2017-Mar-19 17:32N 33°60' E 132°44'10818.1
2017-Mar-19 11:33N 34°34' E 134°49'1919.0
2017-Mar-19 10:33N 34°36' E 135°11'7 6.6
2017-Mar-19 09:28N 34°42' E 135°17'0 0.0
2017-Mar-19 08:28N 34°42' E 135°17'0 0.0
2017-Mar-19 07:28N 34°42' E 135°17'0 0.0
2017-Mar-19 06:28N 34°42' E 135°17'0 0.0
2017-Mar-19 05:28N 34°42' E 135°17'0 0.0
2017-Mar-19 04:28N 34°42' E 135°17'0 0.0
2017-Mar-19 03:28N 34°42' E 135°17'0 0.0
2017-Mar-19 02:28N 34°42' E 135°17'0 0.0
2017-Mar-19 01:16N 34°42' E 135°17'0 0.0
2017-Mar-19 00:22N 34°42' E 135°17'0 0.0
2017-Mar-18 23:28N 34°42' E 135°17'2 1.9
2017-Mar-18 22:33N 34°40' E 135°18'1414.4
2017-Mar-18 21:33N 34°37' E 135°01'1717.1
2017-Mar-18 20:32N 34°30' E 134°42'9 0.3
2017-Mar-17 12:18N 34°35' E 134°51'1419.0
2017-Mar-17 11:33N 34°36' E 135°08'10 9.6
2017-Mar-17 10:33N 34°42' E 135°17'0 0.0
2017-Mar-17 09:33N 34°42' E 135°17'0 0.0
2017-Mar-17 08:33N 34°42' E 135°17'0 0.0
2017-Mar-17 07:33N 34°42' E 135°17'0 0.0
2017-Mar-17 06:27N 34°42' E 135°17'0 0.0
2017-Mar-17 05:33N 34°42' E 135°17'0 0.0
2017-Mar-17 04:33N 34°42' E 135°17'0 0.0
2017-Mar-17 03:33N 34°42' E 135°17'0 0.0
2017-Mar-17 02:33N 34°42' E 135°17'0 0.0
2017-Mar-17 01:33N 34°42' E 135°17'0 0.0
2017-Mar-17 00:33N 34°42' E 135°17'0 0.0
2017-Mar-16 23:21N 34°42' E 135°17'0 0.0
2017-Mar-16 22:33N 34°42' E 135°17'0 0.1
2017-Mar-16 21:27N 34°42' E 135°17'1212.9
2017-Mar-16 20:33N 34°35' E 135°06'11 0.3
2017-Mar-15 11:24N 34°35' E 134°53'1619.6
2017-Mar-15 10:33N 34°36' E 135°13'6 2.7
2017-Mar-15 08:09N 34°42' E 135°17'0 0.0
2017-Mar-15 07:27N 34°42' E 135°17'0 0.0
2017-Mar-15 06:33N 34°42' E 135°17'0 0.0
2017-Mar-15 05:33N 34°42' E 135°17'0 0.0
2017-Mar-15 04:33N 34°42' E 135°17'0 0.0
2017-Mar-15 03:33N 34°42' E 135°17'0 0.0
2017-Mar-15 02:33N 34°42' E 135°17'0 0.0
2017-Mar-15 01:27N 34°42' E 135°17'0 0.0
2017-Mar-15 00:33N 34°42' E 135°17'0 0.0
2017-Mar-14 23:21N 34°42' E 135°17'0 0.0
2017-Mar-14 22:27N 34°42' E 135°17'0 0.0
2017-Mar-14 21:33N 34°42' E 135°17'10 9.9
2017-Mar-14 20:33N 34°35' E 135°08'1918.8
2017-Mar-14 19:33N 34°31' E 134°46'11218.7
2017-Mar-14 13:33N 33°54' E 132°38'2120.9
2017-Mar-14 12:32N 33°42' E 132°17'5 0.3
2017-Mar-13 18:33N 33°43' E 132°22'2121.3
2017-Mar-13 17:34N 33°57' E 132°41'11318.4
2017-Mar-13 11:26N 34°34' E 134°50'1820.7
2017-Mar-13 10:33N 34°36' E 135°12'7 6.6
2017-Mar-13 09:30N 34°42' E 135°17'0 0.0
2017-Mar-13 08:30N 34°42' E 135°17'0 0.0
2017-Mar-13 07:30N 34°42' E 135°17'0 0.0
2017-Mar-13 06:30N 34°42' E 135°17'0 0.0
2017-Mar-13 05:30N 34°42' E 135°17'0 0.0
2017-Mar-13 04:24N 34°42' E 135°17'0 0.0
2017-Mar-13 03:30N 34°42' E 135°17'0 0.0
2017-Mar-13 02:30N 34°42' E 135°17'0 0.0
2017-Mar-13 01:30N 34°42' E 135°17'0 0.0
2017-Mar-13 00:30N 34°42' E 135°17'0 0.0
2017-Mar-12 23:30N 34°42' E 135°17'0 0.0
2017-Mar-12 22:33N 34°42' E 135°17'  
Track history (hours):
 
Tides and Currents Weather Stations Pressure Air Temp Water Temp Dewpoint Dewpoint Depression Visibility Wind Speed Wind Dir Waves Ship Positions

Sunflower Gold

Last reported at 2017-Mar-22 21:34 UTC. Time now 2017-Mar-22 22:10 UTC.
Position N 34°42' E 135°17'.

Length 166 m; draft 5.8 m.

Type: Passenger vessel. MMSI: 431000331.

Date/timePositionNaut miles runAvg speedWind from/ knotsBaromVisibWave heightAir tempDewpointWater temp
2017-Mar-22 21:34N 34°42' E 135°17'1212.3
2017-Mar-22 20:33N 34°35' E 135°05'12818.0
2017-Mar-22 13:27N 33°54' E 132°38'2021.9
2017-Mar-22 12:33N 33°42' E 132°20'11 0.6
2017-Mar-21 19:24N 33°36' E 132°09'1820.9
2017-Mar-21 18:34N 33°45' E 132°27'2120.3
2017-Mar-21 17:33N 34°00' E 132°44'11418.4
2017-Mar-21 11:21N 34°36' E 134°55'1518.4
2017-Mar-21 10:33N 34°36' E 135°13'7 6.2
2017-Mar-21 09:28N 34°42' E 135°17'0 0.0
2017-Mar-21 08:28N 34°42' E 135°17'0 0.0
2017-Mar-21 07:22N 34°42' E 135°17'0 0.0
2017-Mar-21 06:28N 34°42' E 135°17'0 0.0
2017-Mar-21 05:28N 34°42' E 135°17'0 0.0
2017-Mar-21 04:28N 34°42' E 135°17'0 0.0
2017-Mar-21 03:28N 34°42' E 135°17'0 0.0
2017-Mar-21 02:28N 34°42' E 135°17'0 0.0
2017-Mar-21 01:28N 34°42' E 135°17'0 0.0
2017-Mar-21 00:28N 34°42' E 135°17'0 0.0
2017-Mar-20 23:28N 34°42' E 135°17'0 0.0
2017-Mar-20 22:22N 34°42' E 135°17'0 0.0
2017-Mar-20 21:33N 34°42' E 135°17'1111.2
2017-Mar-20 20:33N 34°35' E 135°07'12918.2
2017-Mar-20 13:28N 33°54' E 132°38'2021.7
2017-Mar-20 12:33N 33°42' E 132°20'8 0.5
2017-Mar-19 19:16N 33°39' E 132°11'1620.4
2017-Mar-19 18:28N 33°47' E 132°27'1919.9
2017-Mar-19 17:32N 33°60' E 132°44'10818.1
2017-Mar-19 11:33N 34°34' E 134°49'1919.0
2017-Mar-19 10:33N 34°36' E 135°11'7 6.6
2017-Mar-19 09:28N 34°42' E 135°17'0 0.0
2017-Mar-19 08:28N 34°42' E 135°17'0 0.0
2017-Mar-19 07:28N 34°42' E 135°17'0 0.0
2017-Mar-19 06:28N 34°42' E 135°17'0 0.0
2017-Mar-19 05:28N 34°42' E 135°17'0 0.0
2017-Mar-19 04:28N 34°42' E 135°17'0 0.0
2017-Mar-19 03:28N 34°42' E 135°17'0 0.0
2017-Mar-19 02:28N 34°42' E 135°17'0 0.0
2017-Mar-19 01:16N 34°42' E 135°17'0 0.0
2017-Mar-19 00:22N 34°42' E 135°17'0 0.0
2017-Mar-18 23:28N 34°42' E 135°17'2 1.9
2017-Mar-18 22:33N 34°40' E 135°18'1414.4
2017-Mar-18 21:33N 34°37' E 135°01'1717.1
2017-Mar-18 20:32N 34°30' E 134°42'9 0.3
2017-Mar-17 12:18N 34°35' E 134°51'1419.0
2017-Mar-17 11:33N 34°36' E 135°08'10 9.6
2017-Mar-17 10:33N 34°42' E 135°17'0 0.0
2017-Mar-17 09:33N 34°42' E 135°17'0 0.0
2017-Mar-17 08:33N 34°42' E 135°17'0 0.0
2017-Mar-17 07:33N 34°42' E 135°17'0 0.0
2017-Mar-17 06:27N 34°42' E 135°17'0 0.0
2017-Mar-17 05:33N 34°42' E 135°17'0 0.0
2017-Mar-17 04:33N 34°42' E 135°17'0 0.0
2017-Mar-17 03:33N 34°42' E 135°17'0 0.0
2017-Mar-17 02:33N 34°42' E 135°17'0 0.0
2017-Mar-17 01:33N 34°42' E 135°17'0 0.0
2017-Mar-17 00:33N 34°42' E 135°17'0 0.0
2017-Mar-16 23:21N 34°42' E 135°17'0 0.0
2017-Mar-16 22:33N 34°42' E 135°17'0 0.1
2017-Mar-16 21:27N 34°42' E 135°17'1212.9
2017-Mar-16 20:33N 34°35' E 135°06'11 0.3
2017-Mar-15 11:24N 34°35' E 134°53'1619.6
2017-Mar-15 10:33N 34°36' E 135°13'6 2.7
2017-Mar-15 08:09N 34°42' E 135°17'0 0.0
2017-Mar-15 07:27N 34°42' E 135°17'0 0.0
2017-Mar-15 06:33N 34°42' E 135°17'0 0.0
2017-Mar-15 05:33N 34°42' E 135°17'0 0.0
2017-Mar-15 04:33N 34°42' E 135°17'0 0.0
2017-Mar-15 03:33N 34°42' E 135°17'0 0.0
2017-Mar-15 02:33N 34°42' E 135°17'0 0.0
2017-Mar-15 01:27N 34°42' E 135°17'0 0.0
2017-Mar-15 00:33N 34°42' E 135°17'0 0.0
2017-Mar-14 23:21N 34°42' E 135°17'0 0.0
2017-Mar-14 22:27N 34°42' E 135°17'0 0.0
2017-Mar-14 21:33N 34°42' E 135°17'10 9.9
2017-Mar-14 20:33N 34°35' E 135°08'1918.8
2017-Mar-14 19:33N 34°31' E 134°46'11218.7
2017-Mar-14 13:33N 33°54' E 132°38'2120.9
2017-Mar-14 12:32N 33°42' E 132°17'5 0.3
2017-Mar-13 18:33N 33°43' E 132°22'2121.3
2017-Mar-13 17:34N 33°57' E 132°41'11318.4
2017-Mar-13 11:26N 34°34' E 134°50'1820.7
2017-Mar-13 10:33N 34°36' E 135°12'7 6.6
2017-Mar-13 09:30N 34°42' E 135°17'0 0.0
2017-Mar-13 08:30N 34°42' E 135°17'0 0.0
2017-Mar-13 07:30N 34°42' E 135°17'0 0.0
2017-Mar-13 06:30N 34°42' E 135°17'0 0.0
2017-Mar-13 05:30N 34°42' E 135°17'0 0.0
2017-Mar-13 04:24N 34°42' E 135°17'0 0.0
2017-Mar-13 03:30N 34°42' E 135°17'0 0.0
2017-Mar-13 02:30N 34°42' E 135°17'0 0.0
2017-Mar-13 01:30N 34°42' E 135°17'0 0.0
2017-Mar-13 00:30N 34°42' E 135°17'0 0.0
2017-Mar-12 23:30N 34°42' E 135°17'0 0.0
2017-Mar-12 22:33N 34°42' E 135°17'  

Dump ship's entire track history